• Join FlightAware (Why Join?)
  • Login
  • US Flag 
11:50AM EDT


 

Airport Tracker/Info


-or-


 

Live Flight TrackerFlight Track Log ✈ SQC7332 ✈ 27-Apr-2012 ✈ KORD - KDFW

Flight Track Log - Related Links

Times and Time Zones

All times are in EDT time to prevent confusion due to time zone crossing. See the SQC7332 flight status page for this flight to view local times or setup timezone preferences in your user account.

Time Position Orientation Groundspeed Altitude Reporting Facility
EDT Latitude Longitude Course Direction KTS MPH feet Rate Location/Type
01:01AM 41.9449 -87.9360 114° Southeast  Level FlightAware Approximate
01:02AM 41.9167 -87.8500 205° Southwest 220 253 5,000  Level Chicago TRACON
01:04AM 41.8225 -87.9094 206° Southwest 261 300 9,100 2,400 Climbing Chicago Center
01:05AM 41.7439 -87.9611 206° Southwest 278 320 11,000 2,760 Climbing Chicago Center
01:06AM 41.6550 -88.0186 206° Southwest 327 376 14,700 3,540 Climbing Chicago Center
01:07AM 41.5639 -88.0789 207° Southwest 349 402 18,100 3,180 Climbing Chicago Center
01:08AM 41.4769 -88.1389 204° Southwest 375 432 21,100 2,880 Climbing Chicago Center
01:09AM 41.3714 -88.2017 198° South 397 457 23,900 2,700 Climbing Chicago Center
01:10AM 41.2569 -88.2506 199° South 417 480 26,500 2,520 Climbing Chicago Center
01:11AM 41.1408 -88.3022 201° Southwest 437 503 29,000 2,160 Climbing Chicago Center
01:12AM 41.0206 -88.3619 218° Southwest 452 520 30,900 2,100 Climbing Chicago Center
01:13AM 40.9172 -88.4706 223° Southwest 468 539 33,300 2,580 Climbing Chicago Center
01:14AM 40.8242 -88.5844 221° Southwest 468 539 36,100 2,220 Climbing Chicago Center
01:15AM 40.6608 -88.7747 221° Southwest 432 497 39,300 1,440 Climbing Kansas City Center
01:16AM 40.5661 -88.8836 221° Southwest 438 504 40,000 300 Climbing Kansas City Center
01:17AM 40.4711 -88.9919 221° Southwest 451 519 40,000  Level Kansas City Center
01:18AM 40.3778 -89.0975 221° Southwest 456 525 40,000  Level Kansas City Center
01:19AM 40.2828 -89.2053 222° Southwest 461 531 40,000  Level Kansas City Center
01:20AM 40.1975 -89.3042 220° Southwest 461 531 40,000  Level Kansas City Center
01:21AM 40.1039 -89.4086 221° Southwest 461 531 40,000  Level Kansas City Center
01:22AM 40.0106 -89.5131 220° Southwest 456 525 40,000  Level Kansas City Center
01:23AM 39.9147 -89.6172 222° Southwest 456 525 40,000  Level Kansas City Center
01:24AM 39.8211 -89.7261 220° Southwest 456 525 40,000  Level Kansas City Center
01:25AM 39.7292 -89.8269 220° Southwest 456 525 40,000  Level Kansas City Center
01:26AM 39.6353 -89.9300 222° Southwest 456 525 40,000  Level Kansas City Center
01:27AM 39.5375 -90.0439 220° Southwest 437 503 40,000  Level Kansas City Center
01:28AM 39.4472 -90.1408 221° Southwest 442 509 40,000  Level Kansas City Center
01:29AM 39.3572 -90.2431 219° Southwest 442 509 40,000  Level Kansas City Center
01:30AM 39.2606 -90.3453 221° Southwest 447 514 40,000  Level Kansas City Center
01:31AM 39.1722 -90.4442 218° Southwest 441 507 40,000  Level Kansas City Center
01:32AM 39.0756 -90.5431 221° Southwest 441 507 40,000  Level Kansas City Center
01:33AM 38.9811 -90.6469 221° Southwest 449 517 40,000  Level Kansas City Center
01:34AM 38.8903 -90.7478 219° Southwest 449 517 40,000  Level Kansas City Center
01:35AM 38.7933 -90.8486 220° Southwest 446 513 40,000  Level Kansas City Center
01:36AM 38.7086 -90.9408 219° Southwest 446 513 40,000  Level Kansas City Center
01:37AM 38.6075 -91.0467 220° Southwest 446 513 40,000  Level Kansas City Center
01:38AM 38.5144 -91.1467 219° Southwest 439 505 40,000  Level Kansas City Center
01:39AM 38.4211 -91.2436 219° Southwest 445 512 40,000  Level Kansas City Center
01:40AM 38.3258 -91.3431 219° Southwest 445 512 40,000  Level Kansas City Center
01:41AM 38.2303 -91.4422 219° Southwest 450 518 40,000 -300 Level Kansas City Center
01:42AM 38.1350 -91.5414 220° Southwest 445 512 39,500 -900 Descending Kansas City Center
01:43AM 38.0456 -91.6372 219° Southwest 438 504 38,300 -780 Descending Kansas City Center
01:44AM 37.9517 -91.7328 219° Southwest 438 504 38,000 -180 Descending Kansas City Center
01:45AM 37.8600 -91.8258 220° Southwest 444 511 38,000  Level Kansas City Center
01:46AM 37.7664 -91.9236 220° Southwest 444 511 38,000  Level Kansas City Center
01:47AM 37.6725 -92.0214 219° Southwest 444 511 38,000  Level Kansas City Center
01:48AM 37.5906 -92.1053 219° Southwest 444 511 38,000  Level Kansas City Center
01:49AM 37.4944 -92.2025 219° Southwest 444 511 38,000  Level Kansas City Center
01:50AM 37.4003 -92.2969 220° Southwest 444 511 38,000  Level Kansas City Center
01:51AM 37.3061 -92.3964 219° Southwest 444 511 38,000  Level Kansas City Center
01:52AM 37.2119 -92.4928 218° Southwest 444 511 38,000  Level Kansas City Center
01:54AM 37.0336 -92.6672 219° Southwest 443 510 38,000  Level Memphis Center
01:55AM 36.9378 -92.7656 219° Southwest 443 510 38,000  Level Memphis Center
01:56AM 36.8422 -92.8611 219° Southwest 448 516 38,000  Level Memphis Center
01:57AM 36.7444 -92.9592 218° Southwest 454 522 38,000  Level Memphis Center
01:58AM 36.6464 -93.0542 219° Southwest 454 522 38,000  Level Memphis Center
01:59AM 36.5506 -93.1492 218° Southwest 454 522 38,000  Level Memphis Center
02:00AM 36.4419 -93.2539 220° Southwest 454 522 38,000  Level Memphis Center
02:01AM 36.3458 -93.3536 217° Southwest 454 522 38,000  Level Memphis Center
02:02AM 36.2497 -93.4425 218° Southwest 454 522 38,000  Level Memphis Center
02:03AM 36.1514 -93.5392 218° Southwest 454 522 38,000  Level Memphis Center
02:04AM 36.0531 -93.6331 218° Southwest 454 522 38,000  Level Memphis Center
02:05AM 35.9547 -93.7264 219° Southwest 454 522 38,000  Level Memphis Center
02:06AM 35.8583 -93.8225 217° Southwest 454 522 38,000  Level Memphis Center
02:07AM 35.7597 -93.9156 218° Southwest 454 522 38,000  Level Memphis Center
02:08AM 35.6653 -94.0061 218° Southwest 454 522 38,000  Level Memphis Center
02:09AM 35.5772 -94.0914 219° Southwest 454 522 38,000  Level Memphis Center
02:10AM 35.4828 -94.1842 217° Southwest 449 517 38,000  Level Memphis Center
02:11AM 35.3861 -94.2739 222° Southwest 449 517 38,000  Level Memphis Center
02:13AM 35.1928 -94.4869 222° Southwest 452 520 38,000  Level Fort Worth Center
02:14AM 35.1011 -94.5867 222° Southwest 447 514 38,000  Level Fort Worth Center
02:15AM 35.0117 -94.6833 222° Southwest 447 514 38,000  Level Fort Worth Center
02:16AM 34.9197 -94.7825 223° Southwest 447 514 38,000  Level Fort Worth Center
02:17AM 34.8383 -94.8736 220° Southwest 447 514 38,000  Level Fort Worth Center
02:18AM 34.7483 -94.9647 222° Southwest 441 507 38,000  Level Fort Worth Center
02:19AM 34.6606 -95.0606 221° Southwest 435 501 38,000  Level Fort Worth Center
02:20AM 34.5744 -95.1514 221° Southwest 423 487 38,000  Level Fort Worth Center
02:21AM 34.4864 -95.2444 222° Southwest 423 487 38,000  Level Fort Worth Center
02:22AM 34.3983 -95.3397 220° Southwest 428 493 38,000  Level Fort Worth Center
02:23AM 34.3081 -95.4322 221° Southwest 428 493 38,000 -1,080 Level Fort Worth Center
02:24AM 34.2197 -95.5247 223° Southwest 428 493 35,900 -2,100 Descending Fort Worth Center
02:25AM 34.1253 -95.6322 231° Southwest 428 493 33,900 -1,860 Descending Fort Worth Center
02:26AM 34.0558 -95.7364 227° Southwest 412 474 32,200 -1,620 Descending Fort Worth Center
02:27AM 33.9797 -95.8356 227° Southwest 398 458 30,700 -1,560 Descending Fort Worth Center
02:28AM 33.9039 -95.9344 229° Southwest 398 458 29,100 -1,620 Descending Fort Worth Center
02:29AM 33.8339 -96.0331 226° Southwest 398 458 27,500 -1,920 Descending Fort Worth Center
02:30AM 33.7619 -96.1242 225° Southwest 388 447 25,300 -2,400 Descending Fort Worth Center
02:31AM 33.6856 -96.2153 232° Southwest 388 447 22,800 -2,520 Descending Fort Worth Center
02:32AM 33.6119 -96.3289 226° Southwest 360 414 19,800 -2,460 Descending FAA TRACON SMA TRACON (SMA)
02:33AM 33.5647 -96.3875 227° Southwest 352 405 18,200 -2,340 Descending FAA TRACON SMA TRACON (SMA)
02:34AM 33.5244 -96.4394 227° Southwest 345 397 16,700 -2,340 Descending FAA TRACON SMA TRACON (SMA)
02:34AM 33.4800 -96.4958 226° Southwest 337 388 15,100 -2,400 Descending FAA TRACON SMA TRACON (SMA)
02:35AM 33.4361 -96.5508 226° Southwest 329 379 13,500 -2,220 Descending FAA TRACON SMA TRACON (SMA)
02:36AM 33.3975 -96.5994 227° Southwest 325 374 12,200 -2,100 Descending FAA TRACON SMA TRACON (SMA)
02:36AM 33.3553 -96.6544 227° Southwest 324 373 10,700 -1,560 Descending FAA TRACON SMA TRACON (SMA)
02:37AM 33.3144 -96.7061 227° Southwest 308 354 10,100 -840 Descending FAA TRACON SMA TRACON (SMA)
02:38AM 33.2781 -96.7525 227° Southwest 274 315 9,600 -1,440 Descending FAA TRACON SMA TRACON (SMA)
02:38AM 33.2472 -96.7922 226° Southwest 263 303 8,200 -2,280 Descending FAA TRACON SMA TRACON (SMA)
02:39AM 33.2125 -96.8356 227° Southwest 262 302 6,600 -1,800 Descending FAA TRACON SMA TRACON (SMA)
02:40AM 33.1817 -96.8744 227° Southwest 259 298 5,900 -900 Descending FAA TRACON SMA TRACON (SMA)
02:40AM 33.1494 -96.9161 227° Southwest 245 282 5,400 -900 Descending FAA TRACON SMA TRACON (SMA)
02:41AM 33.1203 -96.9531 228° Southwest 216 249 4,700 -1,140 Descending FAA TRACON SMA TRACON (SMA)
02:42AM 33.0967 -96.9839 227° Southwest 202 232 3,900 -1,380 Descending FAA TRACON SMA TRACON (SMA)
02:42AM 33.0717 -97.0158 226° Southwest 188 216 3,000 -720 Descending FAA TRACON SMA TRACON (SMA)
02:43AM 33.0506 -97.0417 209° Southwest 154 177 3,000 -180 Level FAA TRACON SMA TRACON (SMA)
02:44AM 33.0297 -97.0553 181° South 146 168 2,800 -540 Descending FAA TRACON SMA TRACON (SMA)
02:44AM 33.0047 -97.0556 181° South 126 145 2,300 -720 Descending FAA TRACON SMA TRACON (SMA)
02:45AM 32.9819 -97.0561 180° South 118 136 1,900 -660 Descending FAA TRACON SMA TRACON (SMA)
02:46AM 32.9583 -97.0561 179° South 121 139 1,400 -600 Descending FAA TRACON SMA TRACON (SMA)
02:46AM 32.9369 -97.0558 179° South 127 146 1,100 -600 Descending FAA TRACON SMA TRACON (SMA)
02:47AM 32.9158 -97.0556 179° South 124 143 700 -600 Descending FAA TRACON SMA TRACON (SMA)